Time;durP1;ratioP1;P1;durP2;ratioP2;P2;SDS_P1;SDS_P2;PMS_P1;PMS_P2;Temp;Humidity;BMP_temperature;BMP_pressure;BME280_temperature;BME280_humidity;BME280_pressure;Samples;Min_cycle;Max_cycle;Signal;HPM_P1;HPM_P2
2020/12/16 00:00:24;;;;;;;7.77;6.90;;;9.70;99.90;;;;;;5073610;28;20229;-62
2020/12/16 00:02:50;;;;;;;11.40;7.43;;;9.50;99.90;;;;;;5073218;28;20638;-64
2020/12/16 00:05:17;;;;;;;10.57;7.47;;;9.40;99.90;;;;;;5073040;28;20227;-64
2020/12/16 00:07:43;;;;;;;7.80;6.80;;;9.40;99.90;;;;;;5073576;28;20201;-63
2020/12/16 00:10:11;;;;;;;7.80;7.10;;;9.50;99.90;;;;;;5073338;28;20201;-63
2020/12/16 00:12:38;;;;;;;7.73;6.60;;;9.40;99.90;;;;;;5072794;28;20224;-64
2020/12/16 00:15:04;;;;;;;9.63;7.57;;;9.50;99.90;;;;;;5073166;28;20205;-62
2020/12/16 00:17:32;;;;;;;7.33;6.50;;;9.60;99.90;;;;;;5073114;28;20208;-64
2020/12/16 00:19:58;;;;;;;8.37;6.47;;;9.70;99.90;;;;;;5072918;28;20247;-62
2020/12/16 00:22:24;;;;;;;6.97;6.27;;;9.90;99.90;;;;;;5073153;28;20274;-61
2020/12/16 00:24:50;;;;;;;10.40;7.03;;;10.00;99.90;;;;;;5072711;28;20586;-61
2020/12/16 00:27:17;;;;;;;10.43;7.53;;;10.10;99.90;;;;;;5073034;28;20243;-61
2020/12/16 00:29:43;;;;;;;15.03;9.13;;;10.20;99.90;;;;;;5073221;28;20216;-63
2020/12/16 00:32:09;;;;;;;10.77;8.27;;;10.20;99.90;;;;;;5072834;28;20200;-62
2020/12/16 00:34:36;;;;;;;13.57;8.80;;;10.20;99.90;;;;;;5072958;28;20266;-61
2020/12/16 00:37:02;;;;;;;11.10;6.97;;;10.30;99.90;;;;;;5072936;28;20201;-62
2020/12/16 00:39:29;;;;;;;7.37;5.90;;;10.20;99.90;;;;;;5072597;28;20225;-61
2020/12/16 00:41:55;;;;;;;7.50;5.90;;;10.10;99.90;;;;;;5072811;28;20205;-61
2020/12/16 00:44:21;;;;;;;8.10;6.17;;;9.90;99.90;;;;;;5072681;28;20232;-61
2020/12/16 00:46:47;;;;;;;8.00;6.10;;;9.80;99.90;;;;;;5072530;28;20250;-63
2020/12/16 00:49:13;;;;;;;7.27;5.87;;;9.80;99.90;;;;;;5072476;28;20206;-62
2020/12/16 00:51:40;;;;;;;7.00;5.80;;;9.70;99.90;;;;;;5071860;28;20213;-62
2020/12/16 00:54:07;;;;;;;6.90;6.20;;;9.60;99.90;;;;;;5072290;28;20244;-62
2020/12/16 00:56:33;;;;;;;10.37;6.33;;;9.60;99.90;;;;;;5072029;28;20668;-61
2020/12/16 00:58:59;;;;;;;7.83;6.57;;;9.60;99.90;;;;;;5071934;28;20216;-61
2020/12/16 01:01:29;;;;;;;7.60;6.20;;;9.70;99.90;;;;;;5071939;28;20220;-61
2020/12/16 01:03:55;;;;;;;6.73;6.03;;;9.80;99.90;;;;;;5071484;28;20236;-61
2020/12/16 01:06:21;;;;;;;7.67;6.33;;;9.80;99.90;;;;;;5071965;28;20692;-61
2020/12/16 01:08:48;;;;;;;8.70;6.07;;;9.70;99.90;;;;;;5071927;28;20231;-61
2020/12/16 01:11:14;;;;;;;8.70;6.20;;;9.60;99.90;;;;;;5071791;28;20215;-61
2020/12/16 01:13:41;;;;;;;8.10;5.80;;;9.40;99.90;;;;;;5071523;28;20425;-62
2020/12/16 01:16:07;;;;;;;6.47;5.80;;;9.40;99.90;;;;;;5071599;28;20205;-61
2020/12/16 01:18:33;;;;;;;7.93;5.80;;;9.30;99.90;;;;;;5071614;28;20225;-61
2020/12/16 01:20:59;;;;;;;7.73;6.03;;;9.20;99.90;;;;;;5071663;28;20213;-61
2020/12/16 01:23:25;;;;;;;6.93;5.97;;;9.30;99.90;;;;;;5071342;28;20224;-61
2020/12/16 01:25:53;;;;;;;7.63;6.47;;;9.30;99.90;;;;;;5071665;28;20239;-61
2020/12/16 01:28:19;;;;;;;7.03;6.17;;;9.40;99.90;;;;;;5071187;28;20209;-61
2020/12/16 01:30:45;;;;;;;12.70;6.73;;;9.40;99.90;;;;;;5071296;28;20673;-62
2020/12/16 01:33:11;;;;;;;9.27;7.03;;;9.50;99.90;;;;;;5071370;28;20235;-62
2020/12/16 01:35:37;;;;;;;9.13;7.20;;;9.50;99.90;;;;;;5071072;28;20208;-62
2020/12/16 01:38:04;;;;;;;8.03;7.10;;;9.60;99.90;;;;;;5071284;28;20704;-61
2020/12/16 01:40:30;;;;;;;11.53;6.97;;;9.70;99.90;;;;;;5071469;28;20229;-61
2020/12/16 01:42:57;;;;;;;8.63;6.53;;;9.80;99.90;;;;;;5071235;28;20229;-64
2020/12/16 01:45:25;;;;;;;10.00;6.93;;;9.80;99.90;;;;;;5071004;28;20234;-63
2020/12/16 01:47:51;;;;;;;7.93;7.00;;;10.00;99.90;;;;;;5070951;28;20208;-62
2020/12/16 01:50:18;;;;;;;8.77;6.07;;;10.10;99.90;;;;;;5071438;28;20232;-62
2020/12/16 01:52:46;;;;;;;7.03;5.87;;;10.10;99.90;;;;;;5071612;28;20491;-62
2020/12/16 01:55:13;;;;;;;8.20;6.03;;;10.30;99.90;;;;;;5070948;28;20216;-62
2020/12/16 01:57:41;;;;;;;8.63;6.53;;;10.40;99.90;;;;;;5071212;28;20220;-62
2020/12/16 02:00:10;;;;;;;7.93;5.83;;;10.50;99.90;;;;;;5071538;28;20612;-63
2020/12/16 02:02:38;;;;;;;8.53;6.03;;;10.50;99.90;;;;;;5071307;28;20236;-62
2020/12/16 02:05:05;;;;;;;8.80;6.10;;;10.50;99.90;;;;;;5071240;28;20224;-64
2020/12/16 02:07:32;;;;;;;6.53;5.90;;;10.60;99.90;;;;;;5071297;28;20205;-62
2020/12/16 02:09:58;;;;;;;6.80;5.63;;;10.70;99.90;;;;;;5071026;28;20661;-62
2020/12/16 02:12:30;;;;;;;7.43;5.40;;;10.70;99.90;;;;;;5071779;28;20293;-62
2020/12/16 02:14:56;;;;;;;7.43;6.10;;;10.70;99.90;;;;;;5070910;28;20579;-62
2020/12/16 02:17:23;;;;;;;7.30;6.27;;;10.60;99.90;;;;;;5071041;28;20212;-62
2020/12/16 02:19:55;;;;;;;7.10;5.70;;;10.60;99.90;;;;;;5070251;28;20225;-63
2020/12/16 02:22:22;;;;;;;6.73;5.93;;;10.50;99.90;;;;;;5070880;28;20799;-63
2020/12/16 02:24:57;;;;;;;7.53;5.90;;;10.50;99.90;;;;;;5070715;28;20675;-62
2020/12/16 02:27:24;;;;;;;9.33;5.97;;;10.50;99.90;;;;;;5071151;28;20266;-62
2020/12/16 02:29:50;;;;;;;7.27;6.13;;;10.50;99.90;;;;;;5070799;28;20209;-62
2020/12/16 02:32:19;;;;;;;7.63;5.77;;;10.60;99.90;;;;;;5070777;28;20225;-62
2020/12/16 02:34:45;;;;;;;9.00;6.43;;;10.60;99.90;;;;;;5070635;28;20205;-62
2020/12/16 02:37:11;;;;;;;7.73;6.63;;;10.70;99.90;;;;;;5070736;28;20235;-62
2020/12/16 02:39:38;;;;;;;8.30;6.40;;;10.60;99.90;;;;;;5070701;28;20228;-62
2020/12/16 02:42:07;;;;;;;12.17;6.27;;;10.60;99.90;;;;;;5070760;28;20238;-62
2020/12/16 02:44:33;;;;;;;9.47;7.17;;;10.60;99.90;;;;;;5070592;28;20258;-62
2020/12/16 02:47:00;;;;;;;8.17;6.10;;;10.60;99.90;;;;;;5070655;28;20208;-62
2020/12/16 02:49:27;;;;;;;7.20;5.80;;;10.60;99.90;;;;;;5070618;28;20250;-63
2020/12/16 02:51:53;;;;;;;8.23;6.37;;;10.60;99.90;;;;;;5070848;28;20205;-62
2020/12/16 02:54:20;;;;;;;8.07;6.87;;;10.70;99.90;;;;;;5070628;28;20212;-63
2020/12/16 02:56:50;;;;;;;7.43;6.37;;;10.60;99.90;;;;;;5070532;28;20208;-62
2020/12/16 02:59:20;;;;;;;7.87;6.30;;;10.60;99.90;;;;;;5070205;28;20221;-62
2020/12/16 03:01:48;;;;;;;8.33;6.20;;;10.60;99.90;;;;;;5070950;28;20208;-62
2020/12/16 03:04:14;;;;;;;8.83;6.40;;;10.60;99.90;;;;;;5070681;28;20272;-61
2020/12/16 03:06:40;;;;;;;8.03;5.90;;;10.50;99.90;;;;;;5070704;28;20250;-61
2020/12/16 03:09:06;;;;;;;7.73;6.10;;;10.60;99.90;;;;;;5070438;28;20251;-62
2020/12/16 03:11:33;;;;;;;8.17;6.50;;;10.70;99.90;;;;;;5070948;28;20220;-61
2020/12/16 03:13:59;;;;;;;7.57;6.47;;;10.60;99.90;;;;;;5070398;28;20228;-62
2020/12/16 03:16:26;;;;;;;8.10;7.20;;;10.70;99.90;;;;;;5074107;28;20583;-62
2020/12/16 03:18:52;;;;;;;6.80;6.10;;;10.70;99.90;;;;;;5074194;28;20221;-61
2020/12/16 03:21:22;;;;;;;9.50;6.63;;;10.80;99.90;;;;;;5074505;28;20205;-62
2020/12/16 03:23:48;;;;;;;7.60;6.30;;;10.80;99.90;;;;;;5074038;28;20233;-61
2020/12/16 03:26:14;;;;;;;7.20;6.50;;;10.90;99.90;;;;;;5074308;28;20219;-62
2020/12/16 03:28:40;;;;;;;7.47;6.30;;;10.90;99.90;;;;;;5073697;28;20205;-61
2020/12/16 03:31:07;;;;;;;8.27;5.90;;;10.90;99.90;;;;;;5074197;28;20590;-61
2020/12/16 03:33:34;;;;;;;7.90;5.50;;;11.00;99.90;;;;;;5073183;28;20225;-62
2020/12/16 03:36:00;;;;;;;7.53;6.27;;;11.00;99.90;;;;;;5073805;28;20209;-64
2020/12/16 03:38:26;;;;;;;8.20;6.97;;;10.90;99.90;;;;;;5073348;28;20209;-62
2020/12/16 03:40:52;;;;;;;9.40;7.47;;;10.90;99.90;;;;;;5073871;28;20209;-61
2020/12/16 03:43:19;;;;;;;8.70;7.00;;;10.80;99.90;;;;;;5073477;28;20731;-62
2020/12/16 03:45:45;;;;;;;8.00;6.37;;;10.60;99.90;;;;;;5073372;28;20205;-62
2020/12/16 03:48:11;;;;;;;9.60;6.00;;;10.40;99.90;;;;;;5073378;28;20209;-62
2020/12/16 03:50:38;;;;;;;6.90;6.03;;;10.30;99.90;;;;;;5073487;28;20236;-62
2020/12/16 03:53:04;;;;;;;7.90;6.33;;;10.10;99.90;;;;;;5073363;28;20229;-63
2020/12/16 03:55:30;;;;;;;7.23;6.50;;;10.10;99.90;;;;;;5073073;28;20231;-63
2020/12/16 03:57:57;;;;;;;9.40;6.30;;;10.10;99.90;;;;;;5073165;28;20201;-62
2020/12/16 04:00:23;;;;;;;8.13;6.67;;;10.00;99.90;;;;;;5073389;28;20232;-62
2020/12/16 04:02:49;;;;;;;8.10;6.63;;;9.80;99.90;;;;;;5073030;28;20239;-62
2020/12/16 04:05:15;;;;;;;6.97;6.13;;;9.70;99.90;;;;;;5072973;28;20208;-62
2020/12/16 04:07:42;;;;;;;7.57;6.03;;;9.60;99.90;;;;;;5073080;28;20274;-63
2020/12/16 04:10:08;;;;;;;7.83;6.80;;;9.40;99.90;;;;;;5073220;28;20315;-62
2020/12/16 04:12:35;;;;;;;7.27;6.13;;;9.30;99.90;;;;;;5072883;28;20421;-62
2020/12/16 04:15:01;;;;;;;7.80;7.00;;;9.20;99.90;;;;;;5072539;28;20227;-62
2020/12/16 04:17:27;;;;;;;8.70;7.20;;;9.20;99.90;;;;;;5072905;28;20676;-62
2020/12/16 04:19:53;;;;;;;8.53;7.07;;;9.10;99.90;;;;;;5072536;28;20228;-62
2020/12/16 04:22:19;;;;;;;7.97;7.17;;;9.30;99.90;;;;;;5072983;28;20232;-62
2020/12/16 04:24:46;;;;;;;10.07;7.70;;;9.40;99.90;;;;;;5072491;28;20204;-62
2020/12/16 04:27:13;;;;;;;8.80;7.30;;;9.40;99.90;;;;;;5072589;28;20213;-62
2020/12/16 04:29:40;;;;;;;8.80;7.43;;;9.50;99.90;;;;;;5072721;28;20250;-62
2020/12/16 04:32:06;;;;;;;8.30;7.27;;;9.60;99.90;;;;;;5072959;28;20205;-62
2020/12/16 04:34:33;;;;;;;9.30;7.47;;;9.70;99.90;;;;;;5072358;28;20209;-63
2020/12/16 04:36:59;;;;;;;8.97;7.50;;;9.60;99.90;;;;;;5072357;28;20208;-62
2020/12/16 04:39:26;;;;;;;10.73;8.23;;;9.60;99.90;;;;;;5072125;28;20255;-62
2020/12/16 04:41:53;;;;;;;9.67;8.03;;;9.70;99.90;;;;;;5072284;28;20208;-62
2020/12/16 04:44:19;;;;;;;10.90;8.07;;;9.80;99.90;;;;;;5071910;28;20209;-61
2020/12/16 04:46:47;;;;;;;8.27;7.33;;;9.90;99.90;;;;;;5072302;28;20205;-61
2020/12/16 04:49:13;;;;;;;7.50;6.73;;;9.90;99.90;;;;;;5072068;28;20216;-62
2020/12/16 04:51:42;;;;;;;7.57;6.87;;;9.80;99.90;;;;;;5072090;28;20212;-61
2020/12/16 04:54:08;;;;;;;8.47;6.47;;;9.70;99.90;;;;;;5071679;28;20227;-62
2020/12/16 04:56:36;;;;;;;7.23;6.17;;;9.40;99.90;;;;;;5072129;28;20220;-62
2020/12/16 04:59:04;;;;;;;8.00;6.50;;;9.30;99.90;;;;;;5071457;28;20217;-62
2020/12/16 05:01:30;;;;;;;10.60;7.40;;;9.10;99.90;;;;;;5072039;28;20681;-62
2020/12/16 05:03:57;;;;;;;8.00;6.17;;;9.10;99.90;;;;;;5071492;28;20732;-62
2020/12/16 05:06:33;;;;;;;7.07;6.30;;;9.10;99.90;;;;;;5071995;28;20209;-62
2020/12/16 05:09:05;;;;;;;8.30;6.30;;;9.10;99.90;;;;;;5071282;28;20696;-61
2020/12/16 05:11:43;;;;;;;8.47;6.60;;;9.10;99.90;;;;;;5071813;28;20193;-62
2020/12/16 05:14:12;;;;;;;7.93;6.83;;;9.10;99.90;;;;;;5071370;28;20228;-62
2020/12/16 05:16:53;;;;;;;7.43;6.60;;;9.10;99.90;;;;;;5071978;28;20208;-62
2020/12/16 05:19:34;;;;;;;10.33;8.60;;;9.10;99.90;;;;;;5071487;28;20266;-62
2020/12/16 05:22:19;;;;;;;8.77;7.60;;;9.10;99.90;;;;;;5071829;28;20238;-62
2020/12/16 05:24:46;;;;;;;9.90;7.70;;;9.10;99.90;;;;;;5071714;28;20218;-62
2020/12/16 05:27:18;;;;;;;9.63;7.40;;;9.20;99.90;;;;;;5072078;28;20209;-62
2020/12/16 05:29:45;;;;;;;8.90;8.00;;;9.20;99.90;;;;;;5071848;28;20209;-63
2020/12/16 05:32:16;;;;;;;11.47;7.63;;;9.20;99.90;;;;;;5071641;28;20233;-62
2020/12/16 05:34:43;;;;;;;9.50;7.40;;;9.20;99.90;;;;;;5071481;28;20227;-61
2020/12/16 05:37:33;;;;;;;8.80;7.37;;;9.10;99.90;;;;;;5071325;28;20220;-61
2020/12/16 05:40:03;;;;;;;8.37;6.73;;;9.00;99.90;;;;;;5071269;28;20591;-62
2020/12/16 05:42:29;;;;;;;8.20;7.33;;;9.00;99.90;;;;;;5071447;28;20751;-62
2020/12/16 05:44:58;;;;;;;8.43;6.73;;;9.10;99.90;;;;;;5071441;28;20201;-61
2020/12/16 05:47:25;;;;;;;10.20;8.13;;;9.10;99.90;;;;;;5071681;28;20213;-62
2020/12/16 05:49:52;;;;;;;11.00;7.13;;;8.90;99.90;;;;;;5071608;28;20203;-62
2020/12/16 05:52:18;;;;;;;7.37;6.57;;;9.00;99.90;;;;;;5071447;28;20261;-61
2020/12/16 05:54:50;;;;;;;9.13;7.50;;;9.10;99.90;;;;;;5070781;28;20709;-61
2020/12/16 05:57:18;;;;;;;10.57;8.03;;;9.00;99.90;;;;;;5071288;28;20601;-62
2020/12/16 06:00:01;;;;;;;11.03;8.47;;;9.00;99.90;;;;;;5071520;28;20643;-62
2020/12/16 06:02:34;;;;;;;10.93;8.53;;;8.90;99.90;;;;;;5071388;28;20325;-61
2020/12/16 06:05:00;;;;;;;12.37;8.30;;;9.10;99.90;;;;;;5071714;28;20313;-64
2020/12/16 06:07:28;;;;;;;11.50;8.50;;;9.10;99.90;;;;;;5071449;28;20207;-63
2020/12/16 06:09:56;;;;;;;11.57;8.20;;;9.10;99.90;;;;;;5071255;28;20235;-63
2020/12/16 06:12:27;;;;;;;9.03;7.50;;;9.20;99.90;;;;;;5071444;28;20252;-63
2020/12/16 06:15:05;;;;;;;11.03;8.03;;;9.30;99.90;;;;;;5071428;28;20296;-64
2020/12/16 06:17:39;;;;;;;11.30;8.37;;;9.40;99.90;;;;;;5071451;28;20216;-63
2020/12/16 06:20:08;;;;;;;10.03;7.43;;;9.50;99.90;;;;;;5071306;28;20248;-64
2020/12/16 06:22:35;;;;;;;11.20;7.53;;;9.60;99.90;;;;;;5071891;28;20825;-64
2020/12/16 06:25:07;;;;;;;9.53;7.70;;;9.60;99.90;;;;;;5071245;28;20209;-62
2020/12/16 06:27:43;;;;;;;8.93;7.53;;;9.50;99.90;;;;;;5071120;28;20205;-63
2020/12/16 06:30:15;;;;;;;7.70;6.83;;;9.60;99.90;;;;;;5071208;28;20235;-64
2020/12/16 06:32:45;;;;;;;8.07;7.07;;;9.50;99.90;;;;;;5071043;28;20226;-63
2020/12/16 06:35:17;;;;;;;9.10;7.40;;;9.50;99.90;;;;;;5070919;28;20205;-63
2020/12/16 06:37:43;;;;;;;9.43;7.30;;;9.50;99.90;;;;;;5070943;28;20239;-64
2020/12/16 06:40:10;;;;;;;11.07;8.37;;;9.50;99.90;;;;;;5070970;28;20225;-63
2020/12/16 06:42:36;;;;;;;9.27;7.67;;;9.40;99.90;;;;;;5070982;28;20229;-63
2020/12/16 06:45:10;;;;;;;10.53;8.03;;;9.40;99.90;;;;;;5070132;28;20205;-63
2020/12/16 06:47:37;;;;;;;12.63;9.30;;;9.40;99.90;;;;;;5071089;28;20247;-63
2020/12/16 06:50:16;;;;;;;10.90;8.47;;;9.30;99.90;;;;;;5072835;28;20208;-63
2020/12/16 06:52:43;;;;;;;10.73;8.53;;;9.20;99.90;;;;;;5074871;28;20224;-63
2020/12/16 06:55:09;;;;;;;11.97;8.63;;;9.20;99.90;;;;;;5074417;28;20209;-61
2020/12/16 06:57:46;;;;;;;12.33;8.90;;;9.10;99.90;;;;;;5074319;28;20212;-62
2020/12/16 07:00:18;;;;;;;9.87;8.80;;;8.90;99.90;;;;;;5074451;28;20251;-61
2020/12/16 07:02:46;;;;;;;11.97;9.00;;;8.90;99.90;;;;;;5074339;28;20727;-62
2020/12/16 07:05:43;;;;;;;10.50;8.70;;;8.80;99.90;;;;;;5074266;28;20197;-62
2020/12/16 07:08:09;;;;;;;12.23;9.13;;;8.80;99.90;;;;;;4972892;28;20681;-63
2020/12/16 07:10:47;;;;;;;11.93;8.97;;;8.80;99.90;;;;;;5050740;28;20299;-63
2020/12/16 07:13:23;;;;;;;10.97;8.50;;;8.80;99.90;;;;;;5075714;28;20221;-64
2020/12/16 07:15:53;;;;;;;11.83;8.87;;;8.90;99.90;;;;;;5075500;28;20664;-63
2020/12/16 07:18:40;;;;;;;14.60;10.03;;;9.00;99.90;;;;;;5075366;28;20209;-63
2020/12/16 07:21:24;;;;;;;15.40;11.07;;;9.00;99.90;;;;;;5075057;28;20224;-60
2020/12/16 07:24:04;;;;;;;10.30;8.53;;;9.00;99.90;;;;;;5074519;28;20221;-62
2020/12/16 07:26:32;;;;;;;13.43;9.27;;;9.00;99.90;;;;;;5075023;28;20418;-62
2020/12/16 07:29:00;;;;;;;15.40;10.00;;;8.90;99.90;;;;;;5075062;28;20692;-62
2020/12/16 07:31:26;;;;;;;11.63;9.07;;;9.00;99.90;;;;;;5075578;28;20227;-63
2020/12/16 07:33:54;;;;;;;12.80;9.10;;;8.90;99.90;;;;;;5075033;28;20232;-61
2020/12/16 07:36:22;;;;;;;10.73;8.10;;;8.90;99.90;;;;;;5075306;28;20213;-62
2020/12/16 07:38:50;;;;;;;11.67;9.33;;;8.90;99.90;;;;;;5074714;28;20234;-65
2020/12/16 07:41:26;;;;;;;12.73;9.83;;;9.00;99.90;;;;;;5075296;28;20209;-63
2020/12/16 07:43:53;;;;;;;12.67;9.87;;;9.00;99.90;;;;;;5076602;28;20220;-64
2020/12/16 07:46:21;;;;;;;13.90;9.17;;;9.10;99.90;;;;;;5074360;28;20726;-63
2020/12/16 07:48:48;;;;;;;13.67;8.90;;;9.20;99.90;;;;;;5074718;28;20217;-63
2020/12/16 07:51:18;;;;;;;13.13;9.97;;;9.30;99.90;;;;;;5074808;28;20209;-63
2020/12/16 07:53:46;;;;;;;12.53;9.90;;;9.40;99.90;;;;;;5073745;28;20229;-63
2020/12/16 07:56:14;;;;;;;14.27;10.93;;;9.50;99.90;;;;;;5073892;28;20250;-63
2020/12/16 07:58:40;;;;;;;12.60;10.30;;;9.50;99.90;;;;;;5073945;28;20251;-66
2020/12/16 08:01:11;;;;;;;16.17;10.63;;;9.40;99.90;;;;;;5074305;28;20275;-62
2020/12/16 08:03:38;;;;;;;16.57;11.30;;;9.50;99.90;;;;;;5074069;28;20642;-64
2020/12/16 08:06:05;;;;;;;13.80;10.40;;;9.40;99.90;;;;;;5074211;28;20701;-64
2020/12/16 08:08:42;;;;;;;13.40;9.87;;;9.40;99.90;;;;;;5073993;28;20214;-63
2020/12/16 08:11:18;;;;;;;13.87;10.30;;;9.40;99.90;;;;;;5073822;28;20656;-59
2020/12/16 08:13:44;;;;;;;12.83;10.17;;;9.40;99.90;;;;;;5076251;28;20243;-60
2020/12/16 08:16:11;;;;;;;12.83;9.90;;;9.40;99.90;;;;;;5075222;28;20293;-59
2020/12/16 08:18:42;;;;;;;15.10;10.87;;;9.50;99.90;;;;;;5074829;28;20201;-63
2020/12/16 08:21:24;;;;;;;13.97;10.97;;;9.60;99.90;;;;;;5079662;28;20213;-64
2020/12/16 08:23:51;;;;;;;14.17;11.33;;;9.70;99.90;;;;;;5076662;28;20236;-64
2020/12/16 08:26:19;;;;;;;18.13;13.43;;;9.80;99.90;;;;;;5076921;28;20235;-64
2020/12/16 08:28:46;;;;;;;17.47;11.80;;;9.70;99.90;;;;;;5077515;28;20581;-63
2020/12/16 08:31:12;;;;;;;15.90;12.00;;;9.80;99.90;;;;;;5074159;28;20212;-63
2020/12/16 08:33:43;;;;;;;10.33;8.70;;;10.00;99.90;;;;;;5073733;28;20231;-63
2020/12/16 08:36:12;;;;;;;10.93;8.20;;;10.20;99.90;;;;;;5074222;28;20208;-63
2020/12/16 08:38:43;;;;;;;10.10;8.23;;;10.50;99.90;;;;;;5074657;28;20207;-66
2020/12/16 08:41:11;;;;;;;9.40;7.80;;;10.70;99.90;;;;;;5074580;28;20655;-65
2020/12/16 08:43:39;;;;;;;9.20;7.97;;;10.90;99.90;;;;;;5073362;28;20233;-65
2020/12/16 08:46:08;;;;;;;12.83;8.03;;;11.10;99.90;;;;;;5074737;28;20208;-65
2020/12/16 08:48:45;;;;;;;10.23;7.63;;;11.30;99.90;;;;;;5073551;28;20219;-63
2020/12/16 08:51:15;;;;;;;10.03;7.60;;;11.50;99.90;;;;;;5073017;28;20208;-66
2020/12/16 08:53:54;;;;;;;13.67;8.40;;;11.60;99.90;;;;;;5072918;28;20717;-66
2020/12/16 08:56:32;;;;;;;12.17;8.00;;;11.70;99.90;;;;;;5072722;28;20208;-64
2020/12/16 08:59:06;;;;;;;13.63;8.17;;;11.80;99.90;;;;;;5072253;28;20498;-65
2020/12/16 09:01:33;;;;;;;11.07;8.33;;;11.70;99.90;;;;;;5072879;28;20216;-65
2020/12/16 09:04:00;;;;;;;12.27;8.67;;;11.70;99.90;;;;;;5113368;22;20285;-66
2020/12/16 09:06:27;;;;;;;10.07;8.47;;;11.70;99.90;;;;;;5112722;28;20290;-66
2020/12/16 09:08:53;;;;;;;11.93;9.13;;;11.60;99.90;;;;;;5112759;28;20734;-69
2020/12/16 09:11:20;;;;;;;12.50;8.70;;;11.40;99.90;;;;;;5112588;28;20207;-68
2020/12/16 09:13:47;;;;;;;11.93;9.27;;;11.10;99.90;;;;;;5111883;28;20224;-68
2020/12/16 09:16:21;;;;;;;15.13;10.27;;;10.90;99.90;;;;;;5112878;28;20203;-67
2020/12/16 09:18:48;;;;;;;13.07;10.10;;;10.90;99.90;;;;;;5113366;28;20210;-69
2020/12/16 09:21:14;;;;;;;16.57;10.53;;;11.00;99.90;;;;;;5114184;28;20227;-66
2020/12/16 09:23:41;;;;;;;13.27;10.13;;;11.10;99.90;;;;;;5113435;28;20288;-66
2020/12/16 09:26:07;;;;;;;13.03;10.03;;;11.20;99.90;;;;;;5113215;28;20204;-66
2020/12/16 09:28:35;;;;;;;13.00;10.33;;;11.40;99.90;;;;;;5111770;28;20203;-67
2020/12/16 09:31:15;;;;;;;13.27;10.03;;;11.40;99.90;;;;;;5112129;28;20207;-67
2020/12/16 09:33:42;;;;;;;12.87;9.37;;;11.50;99.90;;;;;;5112341;28;20230;-66
2020/12/16 09:36:09;;;;;;;12.20;9.70;;;11.60;99.90;;;;;;5113559;28;20204;-68
2020/12/16 09:38:35;;;;;;;12.90;9.67;;;11.70;99.90;;;;;;5112174;28;20204;-67
2020/12/16 09:41:02;;;;;;;12.23;9.83;;;11.70;99.90;;;;;;5113489;28;20223;-67
2020/12/16 09:43:41;;;;;;;13.50;9.50;;;11.70;99.90;;;;;;5112239;28;20259;-67
2020/12/16 09:46:19;;;;;;;12.80;9.77;;;11.50;99.90;;;;;;5111510;28;20206;-67
2020/12/16 09:48:46;;;;;;;13.33;10.23;;;11.50;99.90;;;;;;5111420;28;20213;-67
2020/12/16 09:51:17;;;;;;;12.60;10.23;;;11.50;99.90;;;;;;5111769;28;20206;-66
2020/12/16 09:53:44;;;;;;;15.73;11.13;;;11.50;99.90;;;;;;5111299;28;20352;-66
2020/12/16 09:56:22;;;;;;;11.70;10.00;;;11.60;99.90;;;;;;5111619;28;20207;-66
2020/12/16 09:58:48;;;;;;;14.90;12.37;;;11.60;99.90;;;;;;5111323;28;20199;-69
2020/12/16 10:01:15;;;;;;;13.77;10.73;;;11.60;99.90;;;;;;5112253;28;20594;-67
2020/12/16 10:03:42;;;;;;;12.20;10.27;;;11.60;99.90;;;;;;5113191;28;20296;-67
2020/12/16 10:06:11;;;;;;;19.40;12.80;;;11.70;99.90;;;;;;5113849;28;20226;-67
2020/12/16 10:08:38;;;;;;;14.20;11.37;;;11.60;99.90;;;;;;5112559;28;20231;-67
2020/12/16 10:11:04;;;;;;;20.23;13.43;;;11.40;99.90;;;;;;5111714;28;20227;-67
2020/12/16 10:13:30;;;;;;;16.03;10.33;;;11.20;99.90;;;;;;5112466;28;20231;-66
2020/12/16 10:15:56;;;;;;;14.50;11.10;;;11.20;99.90;;;;;;5114011;28;20215;-67
2020/12/16 10:18:23;;;;;;;12.13;10.17;;;11.10;99.90;;;;;;5116482;28;20203;-67
2020/12/16 10:20:50;;;;;;;14.47;10.80;;;11.10;99.90;;;;;;5114122;28;20710;-67
2020/12/16 10:23:16;;;;;;;13.50;10.37;;;11.10;99.90;;;;;;5112648;28;20227;-67
2020/12/16 10:25:42;;;;;;;14.00;10.70;;;11.20;99.90;;;;;;5115249;28;20210;-67
2020/12/16 10:28:10;;;;;;;13.10;10.20;;;11.40;99.90;;;;;;5115644;28;20244;-67
2020/12/16 10:30:37;;;;;;;13.73;10.13;;;11.40;99.90;;;;;;5115935;28;20286;-67
2020/12/16 10:33:03;;;;;;;12.27;9.53;;;11.50;99.90;;;;;;5115590;28;20633;-67
2020/12/16 10:35:29;;;;;;;12.93;9.30;;;11.60;99.90;;;;;;5115173;28;20204;-67
2020/12/16 10:37:56;;;;;;;11.77;9.30;;;11.80;99.90;;;;;;5115067;28;20203;-67
2020/12/16 10:40:22;;;;;;;12.23;9.57;;;11.80;99.90;;;;;;5115245;28;20223;-67
2020/12/16 10:42:49;;;;;;;11.93;9.37;;;11.80;99.90;;;;;;5115592;28;20238;-67
2020/12/16 10:45:15;;;;;;;13.27;9.47;;;11.60;99.90;;;;;;5115200;28;20590;-67
2020/12/16 10:47:42;;;;;;;11.07;9.10;;;11.80;99.90;;;;;;5115009;28;20210;-68
2020/12/16 10:50:09;;;;;;;13.20;10.03;;;11.90;99.90;;;;;;5115092;28;20226;-67
2020/12/16 10:52:35;;;;;;;12.17;9.87;;;12.10;99.90;;;;;;5114951;28;20228;-66
2020/12/16 10:55:02;;;;;;;12.47;9.63;;;12.40;99.90;;;;;;5114838;28;20212;-67
2020/12/16 10:57:28;;;;;;;13.30;9.90;;;12.60;99.90;;;;;;5115145;28;20200;-68
2020/12/16 10:59:55;;;;;;;12.60;9.60;;;12.80;99.90;;;;;;5114757;28;20295;-66
2020/12/16 11:02:21;;;;;;;10.60;9.10;;;12.80;99.90;;;;;;5114927;28;20199;-65
2020/12/16 11:04:48;;;;;;;12.33;9.80;;;12.90;99.90;;;;;;5114782;28;20212;-65
2020/12/16 11:07:14;;;;;;;11.53;9.07;;;12.80;99.90;;;;;;5115453;28;20215;-65
2020/12/16 11:09:43;;;;;;;12.70;10.30;;;12.80;99.90;;;;;;5119714;28;20203;-67
2020/12/16 11:12:09;;;;;;;11.30;9.97;;;12.90;99.90;;;;;;5117187;28;20265;-66
2020/12/16 11:14:35;;;;;;;12.07;9.83;;;13.00;99.90;;;;;;5114366;28;20675;-66
2020/12/16 11:17:05;;;;;;;13.70;10.97;;;13.00;99.90;;;;;;5115532;28;20211;-66
2020/12/16 11:19:31;;;;;;;14.23;10.50;;;13.00;99.90;;;;;;5115134;28;20223;-62
2020/12/16 11:21:57;;;;;;;12.37;10.63;;;12.80;99.90;;;;;;5114855;28;20252;-68
2020/12/16 11:24:25;;;;;;;12.60;10.07;;;12.70;99.90;;;;;;5115188;28;20227;-67
2020/12/16 11:26:53;;;;;;;12.63;10.53;;;12.60;99.90;;;;;;5115680;28;20295;-65
2020/12/16 11:29:21;;;;;;;16.00;10.50;;;12.50;99.90;;;;;;5115267;28;20203;-62
2020/12/16 11:31:50;;;;;;;13.88;11.65;;;12.60;99.90;;;;;;5099295;28;20582;-64
2020/12/16 11:34:18;;;;;;;11.03;9.83;;;12.50;99.90;;;;;;5094464;28;20232;-63
2020/12/16 11:36:48;;;;;;;12.23;10.20;;;12.50;99.90;;;;;;5103613;28;20185;-63
2020/12/16 11:39:14;;;;;;;15.90;11.33;;;12.50;99.90;;;;;;5110106;28;20222;-64
2020/12/16 11:41:43;;;;;;;13.20;10.40;;;12.60;99.90;;;;;;5118946;28;20643;-63
2020/12/16 11:44:09;;;;;;;14.23;9.90;;;12.50;99.90;;;;;;5118361;28;20292;-65
2020/12/16 11:46:35;;;;;;;13.23;10.27;;;12.50;99.90;;;;;;5117022;28;20207;-65
2020/12/16 11:49:02;;;;;;;13.87;11.03;;;12.50;99.90;;;;;;5114800;28;20211;-65
2020/12/16 11:51:30;;;;;;;13.27;10.83;;;12.40;99.90;;;;;;5114288;28;20269;-66
2020/12/16 11:53:56;;;;;;;13.77;10.47;;;12.50;99.90;;;;;;5114375;28;20228;-66
2020/12/16 11:56:23;;;;;;;12.30;9.60;;;12.70;99.90;;;;;;5114409;28;20426;-67
2020/12/16 11:58:50;;;;;;;12.40;9.27;;;12.90;99.90;;;;;;5113414;28;20565;-67
2020/12/16 12:01:17;;;;;;;12.30;9.30;;;13.00;99.90;;;;;;5114059;28;20227;-67
2020/12/16 12:03:43;;;;;;;12.67;10.07;;;13.00;99.90;;;;;;5117505;28;20235;-65
2020/12/16 12:06:10;;;;;;;13.93;9.60;;;12.90;99.90;;;;;;5113536;28;20204;-63
2020/12/16 12:08:37;;;;;;;13.27;10.00;;;13.00;99.90;;;;;;5113177;28;20207;-63
2020/12/16 12:11:04;;;;;;;13.30;9.50;;;13.30;99.90;;;;;;5113362;28;20195;-65
2020/12/16 12:13:30;;;;;;;14.03;9.83;;;13.50;99.90;;;;;;5112963;28;20608;-65
2020/12/16 12:15:57;;;;;;;10.77;9.60;;;13.60;99.90;;;;;;5112852;28;20215;-64
2020/12/16 12:18:23;;;;;;;10.27;8.60;;;13.60;99.90;;;;;;5112734;28;20691;-64
2020/12/16 12:20:49;;;;;;;12.43;10.03;;;13.60;99.90;;;;;;5112596;28;20638;-65
2020/12/16 12:23:16;;;;;;;13.20;9.30;;;13.60;99.90;;;;;;5113031;28;20255;-64
2020/12/16 12:25:43;;;;;;;12.80;9.10;;;13.60;99.90;;;;;;5112617;28;20227;-64
2020/12/16 12:28:09;;;;;;;12.43;8.83;;;13.60;99.90;;;;;;5112701;28;20260;-65
2020/12/16 12:30:36;;;;;;;11.33;9.10;;;13.60;99.90;;;;;;5112721;28;20667;-64
2020/12/16 12:33:03;;;;;;;12.93;9.23;;;13.50;99.90;;;;;;5112471;28;20219;-64
2020/12/16 12:35:29;;;;;;;12.63;9.63;;;13.50;99.90;;;;;;5112248;28;20211;-65
2020/12/16 12:37:55;;;;;;;10.53;8.27;;;13.50;99.90;;;;;;5112579;28;20208;-64
2020/12/16 12:40:21;;;;;;;11.07;8.37;;;13.60;99.90;;;;;;5112841;28;20721;-64
2020/12/16 12:42:48;;;;;;;12.17;8.23;;;13.60;99.90;;;;;;5112643;28;20703;-64
2020/12/16 12:45:15;;;;;;;8.93;8.00;;;13.60;99.90;;;;;;5112366;28;20204;-64
2020/12/16 12:47:41;;;;;;;8.17;7.20;;;13.70;99.90;;;;;;5112279;28;20290;-64